Time;durP1;ratioP1;P1;durP2;ratioP2;P2;SDS_P1;SDS_P2;PMS_P1;PMS_P2;Temp;Humidity;BMP_temperature;BMP_pressure;BME280_temperature;BME280_humidity;BME280_pressure;Samples;Min_cycle;Max_cycle;Signal;HPM_P1;HPM_P2
2022/06/17 00:02:11;;;;;;;1.30;1.30;;;21.80;59.00;;;;;;5042907;28;44689;-62
2022/06/17 00:04:39;;;;;;;1.40;1.40;;;21.80;59.00;;;;;;5041661;28;43801;-61
2022/06/17 00:07:14;;;;;;;1.63;1.52;;;21.80;59.00;;;;;;5043211;28;43487;-62
2022/06/17 00:09:42;;;;;;;1.40;1.40;;;21.80;59.00;;;;;;5044073;28;43511;-61
2022/06/17 00:12:14;;;;;;;1.52;1.42;;;21.80;59.00;;;;;;5043312;28;44846;-62
2022/06/17 00:17:28;;;;;;;1.63;1.52;;;21.80;59.00;;;;;;5043855;28;43443;-62
2022/06/17 00:19:56;;;;;;;1.58;1.48;;;21.80;59.00;;;;;;5043890;28;43535;-62
2022/06/17 00:22:25;;;;;;;1.25;1.25;;;21.70;59.00;;;;;;5042633;28;44704;-62
2022/06/17 00:24:53;;;;;;;1.38;1.30;;;21.70;59.00;;;;;;5033168;28;43750;-61
2022/06/17 00:27:21;;;;;;;1.60;1.50;;;21.70;59.00;;;;;;5043405;28;44019;-62
2022/06/17 00:29:48;;;;;;;1.30;1.30;;;21.70;59.00;;;;;;5043189;28;43391;-62
2022/06/17 00:32:16;;;;;;;1.60;1.50;;;21.70;59.00;;;;;;5041953;28;44141;-62
2022/06/17 00:34:44;;;;;;;1.58;1.48;;;21.70;59.00;;;;;;5043388;28;43581;-61
2022/06/17 00:37:14;;;;;;;1.58;1.48;;;21.70;59.00;;;;;;5043500;28;43441;-62
2022/06/17 00:39:42;;;;;;;1.70;1.60;;;21.70;59.00;;;;;;5043472;28;43538;-61
2022/06/17 00:42:14;;;;;;;1.55;1.40;;;21.70;59.00;;;;;;5042675;28;44134;-62
2022/06/17 00:44:53;;;;;;;1.55;1.45;;;21.60;58.90;;;;;;5026404;28;44005;-62
2022/06/17 00:47:26;;;;;;;1.65;1.55;;;21.70;59.00;;;;;;5034726;28;43491;-62
2022/06/17 00:50:02;;;;;;;1.70;1.60;;;21.60;59.00;;;;;;5042579;28;43607;-61
2022/06/17 00:52:42;;;;;;;1.60;1.50;;;21.60;59.00;;;;;;5048934;28;44937;-62
2022/06/17 00:55:24;;;;;;;1.40;1.30;;;21.60;59.00;;;;;;5043078;28;43478;-62
2022/06/17 00:57:52;;;;;;;1.50;1.40;;;21.60;59.00;;;;;;5042182;28;43406;-61
2022/06/17 01:00:26;;;;;;;1.70;1.60;;;21.60;59.00;;;;;;5041718;28;43509;-62
2022/06/17 01:03:05;;;;;;;1.63;1.52;;;21.60;59.00;;;;;;5042213;28;44705;-61
2022/06/17 01:05:39;;;;;;;1.20;1.20;;;21.60;59.00;;;;;;5042345;28;43926;-62
2022/06/17 01:11:19;;;;;;;1.77;1.67;;;21.60;59.00;;;;;;5042554;28;43511;-61
2022/06/17 01:13:50;;;;;;;1.70;1.60;;;21.60;59.00;;;;;;5040234;28;44994;-62
2022/06/17 01:16:25;;;;;;;1.77;1.67;;;21.50;58.90;;;;;;5037935;28;43447;-61
2022/06/17 01:19:16;;;;;;;1.40;1.38;;;21.50;58.90;;;;;;5057634;28;43379;-61
2022/06/17 01:21:53;;;;;;;1.77;1.67;;;21.50;58.90;;;;;;5042198;28;43551;-61
2022/06/17 01:24:21;;;;;;;1.60;1.50;;;21.60;59.00;;;;;;5041184;28;43817;-61
2022/06/17 01:26:49;;;;;;;1.30;1.30;;;21.50;58.90;;;;;;5042233;28;43782;-61
2022/06/17 01:29:17;;;;;;;1.27;1.27;;;21.50;58.90;;;;;;5041347;28;43463;-62
2022/06/17 01:31:51;;;;;;;1.48;1.38;;;21.50;58.90;;;;;;5042397;28;43490;-62
2022/06/17 01:34:21;;;;;;;1.30;1.30;;;21.50;58.80;;;;;;5033291;28;44921;-61
2022/06/17 01:36:49;;;;;;;1.27;1.27;;;21.50;58.80;;;;;;5042770;28;43978;-62
2022/06/17 01:39:17;;;;;;;1.38;1.35;;;21.50;58.80;;;;;;5041776;28;43522;-62
2022/06/17 01:41:47;;;;;;;1.70;1.60;;;21.50;58.80;;;;;;5041218;28;43511;-61
2022/06/17 01:44:23;;;;;;;1.80;1.70;;;21.50;58.80;;;;;;5042089;28;44668;-61
2022/06/17 01:46:55;;;;;;;1.20;1.20;;;21.50;58.80;;;;;;5041678;28;43468;-61
2022/06/17 01:49:51;;;;;;;1.30;1.30;;;21.50;58.80;;;;;;5042663;28;43432;-61
2022/06/17 01:52:41;;;;;;;1.48;1.48;;;21.50;58.80;;;;;;5034752;28;43667;-62
2022/06/17 01:55:20;;;;;;;1.43;1.40;;;21.50;58.80;;;;;;5073978;28;44071;-62
2022/06/17 01:57:58;;;;;;;1.30;1.30;;;21.40;58.80;;;;;;5041078;28;43448;-62
2022/06/17 02:00:29;;;;;;;1.40;1.30;;;21.40;58.80;;;;;;5025528;28;43520;-62
2022/06/17 02:03:06;;;;;;;1.80;1.70;;;21.40;58.80;;;;;;5040527;28;43562;-62
2022/06/17 02:05:39;;;;;;;1.45;1.40;;;21.40;58.70;;;;;;5041694;28;44939;-62
2022/06/17 02:08:07;;;;;;;1.55;1.48;;;21.40;58.70;;;;;;5041050;28;43925;-61
2022/06/17 02:10:39;;;;;;;1.70;1.60;;;21.40;58.80;;;;;;5040928;28;43454;-62
2022/06/17 02:13:10;;;;;;;2.00;1.90;;;21.40;58.80;;;;;;5075404;28;43590;-61
2022/06/17 02:16:02;;;;;;;1.30;1.30;;;21.40;58.80;;;;;;5040568;28;44339;-61
2022/06/17 02:18:51;;;;;;;1.60;1.50;;;21.40;58.80;;;;;;5040886;28;43429;-61
2022/06/17 02:21:32;;;;;;;1.90;1.80;;;21.40;58.80;;;;;;5041879;28;43495;-61
2022/06/17 02:24:02;;;;;;;1.70;1.55;;;21.30;58.70;;;;;;5042041;28;43498;-61
2022/06/17 02:26:33;;;;;;;1.80;1.70;;;21.40;58.80;;;;;;5040874;28;45038;-61
2022/06/17 02:29:04;;;;;;;1.65;1.55;;;21.30;58.80;;;;;;5041727;28;44246;-62
2022/06/17 02:31:33;;;;;;;1.55;1.48;;;21.30;58.80;;;;;;5039414;28;43553;-61
2022/06/17 02:34:04;;;;;;;1.80;1.70;;;21.30;58.80;;;;;;5042660;28;43478;-62
2022/06/17 02:37:05;;;;;;;1.80;1.70;;;21.30;58.80;;;;;;5026883;28;44071;-61
2022/06/17 02:39:34;;;;;;;1.75;1.65;;;21.30;58.70;;;;;;5038826;28;43513;-62
2022/06/17 02:42:02;;;;;;;1.70;1.60;;;21.30;58.80;;;;;;5042853;28;43494;-61
2022/06/17 02:44:35;;;;;;;1.80;1.70;;;21.30;58.80;;;;;;5045106;28;43432;-62
2022/06/17 02:47:03;;;;;;;1.92;1.80;;;21.30;58.80;;;;;;5043142;28;44297;-62
2022/06/17 02:49:34;;;;;;;1.70;1.60;;;21.30;58.80;;;;;;5045033;28;43572;-62
2022/06/17 02:52:09;;;;;;;1.65;1.55;;;21.20;58.70;;;;;;5044669;28;43583;-61
2022/06/17 02:54:40;;;;;;;1.88;1.77;;;21.20;58.80;;;;;;5044763;28;43609;-62
2022/06/17 02:57:16;;;;;;;1.40;1.40;;;21.30;58.80;;;;;;5043427;28;44333;-62
2022/06/17 02:59:51;;;;;;;1.60;1.50;;;21.20;58.80;;;;;;5076725;28;43458;-61
2022/06/17 03:02:42;;;;;;;1.90;1.80;;;21.20;58.80;;;;;;5034256;28;43460;-61
2022/06/17 03:05:23;;;;;;;1.80;1.70;;;21.30;58.80;;;;;;5038378;28;43603;-61
2022/06/17 03:07:51;;;;;;;1.70;1.60;;;21.20;58.80;;;;;;5044130;28;44868;-61
2022/06/17 03:10:41;;;;;;;1.80;1.70;;;21.20;58.80;;;;;;5043531;28;43423;-61
2022/06/17 03:13:31;;;;;;;1.70;1.60;;;21.20;58.80;;;;;;5072569;28;43418;-61
2022/06/17 03:16:02;;;;;;;1.70;1.60;;;21.20;58.80;;;;;;5043096;28;43553;-61
2022/06/17 03:18:31;;;;;;;1.45;1.35;;;21.10;58.80;;;;;;5042019;28;43994;-61
2022/06/17 03:21:00;;;;;;;1.50;1.50;;;21.10;58.80;;;;;;5042973;28;43536;-62
2022/06/17 03:23:48;;;;;;;1.80;1.70;;;21.10;58.80;;;;;;5043420;28;43458;-62
2022/06/17 03:26:22;;;;;;;1.83;1.73;;;21.10;58.80;;;;;;5034172;28;43507;-62
2022/06/17 03:28:53;;;;;;;1.67;1.58;;;21.10;58.80;;;;;;5044321;28;43746;-62
2022/06/17 03:31:24;;;;;;;1.80;1.70;;;21.10;58.80;;;;;;5044395;28;43979;-61
2022/06/17 03:34:04;;;;;;;1.60;1.50;;;21.10;58.80;;;;;;5026032;28;43476;-61
2022/06/17 03:36:35;;;;;;;1.85;1.75;;;21.10;58.80;;;;;;5044403;28;43504;-61
2022/06/17 03:39:14;;;;;;;1.73;1.63;;;21.10;58.80;;;;;;5039904;28;44694;-62
2022/06/17 03:41:53;;;;;;;1.60;1.50;;;21.10;58.80;;;;;;5039883;28;44283;-61
2022/06/17 03:44:25;;;;;;;1.80;1.70;;;21.10;58.80;;;;;;5044305;28;43395;-61
2022/06/17 03:47:24;;;;;;;1.73;1.63;;;21.10;58.80;;;;;;5042981;28;43605;-62
2022/06/17 03:50:00;;;;;;;1.50;1.50;;;21.10;58.80;;;;;;5037235;28;44712;-61
2022/06/17 03:52:34;;;;;;;1.83;1.73;;;21.10;58.80;;;;;;5045150;28;43425;-62
2022/06/17 03:55:15;;;;;;;1.67;1.58;;;21.10;58.80;;;;;;5043411;28;43454;-61
2022/06/17 03:57:46;;;;;;;1.83;1.73;;;21.10;58.80;;;;;;5042696;28;43496;-61
2022/06/17 04:00:36;;;;;;;2.70;1.70;;;21.10;58.80;;;;;;5076217;28;46176;-61
2022/06/17 04:03:10;;;;;;;1.73;1.63;;;21.10;58.80;;;;;;5076092;28;43987;-61
2022/06/17 04:05:40;;;;;;;2.25;1.80;;;21.10;58.80;;;;;;5042698;28;43491;-61
2022/06/17 04:08:10;;;;;;;1.60;1.50;;;21.00;58.80;;;;;;5042763;28;43435;-61
2022/06/17 04:10:39;;;;;;;1.80;1.70;;;21.00;58.80;;;;;;5042062;28;44121;-61
2022/06/17 04:13:10;;;;;;;1.60;1.50;;;21.00;59.50;;;;;;5043267;28;43905;-61
2022/06/17 04:16:33;;;;;;;1.42;1.42;;;21.00;58.90;;;;;;5042472;28;43476;-61
2022/06/17 04:19:16;;;;;;;1.90;1.80;;;21.00;58.80;;;;;;5038671;28;43510;-61
2022/06/17 04:22:25;;;;;;;1.77;1.67;;;21.00;58.90;;;;;;5042675;28;44162;-61
2022/06/17 04:25:19;;;;;;;1.70;1.60;;;21.00;58.90;;;;;;5013517;28;45016;-61
2022/06/17 04:27:57;;;;;;;1.75;1.65;;;21.00;58.90;;;;;;5036538;28;43484;-61
2022/06/17 04:30:40;;;;;;;1.80;1.70;;;21.00;58.90;;;;;;5042244;28;43491;-61
2022/06/17 04:33:18;;;;;;;1.70;1.60;;;21.00;58.90;;;;;;5042000;28;44958;-61
2022/06/17 04:35:48;;;;;;;1.73;1.63;;;21.00;59.00;;;;;;5041790;28;43471;-61
2022/06/17 04:38:16;;;;;;;1.80;1.70;;;20.90;58.90;;;;;;5042101;28;43515;-61
2022/06/17 04:41:05;;;;;;;1.88;1.77;;;21.00;59.00;;;;;;5042897;28;43518;-62
2022/06/17 04:43:47;;;;;;;1.90;1.80;;;20.90;59.00;;;;;;5041869;28;43976;-61
2022/06/17 04:46:29;;;;;;;1.65;1.60;;;20.90;58.90;;;;;;5041583;28;43462;-61
2022/06/17 04:48:58;;;;;;;1.65;1.55;;;20.90;59.00;;;;;;5033073;28;43552;-61
2022/06/17 04:51:30;;;;;;;1.60;1.50;;;20.90;59.00;;;;;;5042288;28;43528;-61
2022/06/17 04:54:06;;;;;;;1.80;1.70;;;20.90;59.00;;;;;;5042117;28;44662;-61
2022/06/17 04:56:56;;;;;;;;;;;20.90;59.00;;;;;;5033530;28;43412;-62
2022/06/17 04:59:34;;;;;;;1.60;1.50;;;20.90;59.00;;;;;;5042866;28;43505;-61
2022/06/17 05:02:07;;;;;;;1.60;1.50;;;20.90;59.10;;;;;;5073667;28;43669;-61
2022/06/17 05:04:43;;;;;;;1.80;1.70;;;20.90;59.10;;;;;;5074807;28;43930;-61
2022/06/17 05:07:11;;;;;;;1.80;1.70;;;20.90;59.10;;;;;;5043157;28;43836;-61
2022/06/17 05:09:44;;;;;;;1.60;1.55;;;20.80;59.10;;;;;;5041820;28;43418;-61
2022/06/17 05:12:26;;;;;;;1.85;1.75;;;20.90;59.10;;;;;;5041327;28;43607;-62
2022/06/17 05:14:59;;;;;;;1.63;1.63;;;20.90;59.10;;;;;;5035810;28;43880;-62
2022/06/17 05:17:27;;;;;;;1.63;1.52;;;20.90;59.10;;;;;;5041617;28;43972;-61
2022/06/17 05:19:54;;;;;;;1.60;1.50;;;20.80;59.00;;;;;;5041642;28;43523;-61
2022/06/17 05:22:34;;;;;;;1.95;1.85;;;20.90;59.10;;;;;;5041574;28;43512;-61
2022/06/17 05:25:07;;;;;;;1.85;1.75;;;20.80;59.00;;;;;;5070930;28;44926;-61
2022/06/17 05:27:34;;;;;;;1.60;1.50;;;20.80;59.00;;;;;;5040965;28;43432;-61
2022/06/17 05:30:03;;;;;;;1.70;1.60;;;20.80;59.10;;;;;;5025876;28;43464;-61
2022/06/17 05:32:35;;;;;;;1.80;1.70;;;20.80;59.10;;;;;;5041137;28;43458;-61
2022/06/17 05:35:03;;;;;;;1.55;1.45;;;20.80;59.10;;;;;;5041300;28;44797;-61
2022/06/17 05:37:30;;;;;;;1.80;1.70;;;20.80;59.10;;;;;;5041436;28;43989;-61
2022/06/17 05:40:00;;;;;;;1.70;1.60;;;20.80;59.10;;;;;;5041490;28;43476;-61
2022/06/17 05:42:29;;;;;;;1.67;1.58;;;20.80;59.10;;;;;;5041436;28;43634;-61
2022/06/17 05:44:57;;;;;;;1.65;1.55;;;20.80;59.10;;;;;;5041554;28;44945;-61
2022/06/17 05:47:42;;;;;;;1.50;1.40;;;20.80;59.10;;;;;;5024519;28;44168;-61
2022/06/17 05:50:23;;;;;;;1.60;1.50;;;20.80;59.10;;;;;;5040522;28;43496;-61
2022/06/17 05:53:12;;;;;;;1.92;1.80;;;20.80;59.20;;;;;;5040912;28;43622;-61
2022/06/17 05:55:46;;;;;;;1.70;1.60;;;20.80;59.20;;;;;;5041437;28;44803;-61
2022/06/17 05:58:13;;;;;;;1.55;1.45;;;20.80;59.20;;;;;;5040879;28;44112;-61
2022/06/17 06:00:42;;;;;;;1.65;1.55;;;20.80;59.20;;;;;;5040754;28;43490;-61
2022/06/17 06:03:17;;;;;;;1.65;1.55;;;20.80;59.20;;;;;;5043134;28;43526;-61
2022/06/17 06:05:45;;;;;;;1.70;1.65;;;20.80;59.20;;;;;;5044513;28;44155;-61
2022/06/17 06:08:16;;;;;;;1.52;1.42;;;20.80;59.30;;;;;;5044557;28;43448;-61
2022/06/17 06:10:46;;;;;;;1.60;1.50;;;20.80;59.30;;;;;;5044554;28;43559;-61
2022/06/17 06:13:18;;;;;;;1.63;1.55;;;20.80;59.30;;;;;;5045606;28;43706;-61
2022/06/17 06:15:47;;;;;;;;;;;20.80;59.30;;;;;;5077880;28;44906;-61
2022/06/17 06:18:41;;;;;;;1.50;1.40;;;20.80;59.30;;;;;;5045228;28;43575;-61
2022/06/17 06:21:13;;;;;;;1.58;1.48;;;20.70;59.20;;;;;;5066639;28;43347;-61
2022/06/17 06:23:42;;;;;;;1.33;1.33;;;20.70;59.20;;;;;;5043962;28;43555;-61
2022/06/17 06:26:17;;;;;;;1.60;1.50;;;20.80;59.30;;;;;;5044718;28;43806;-61
2022/06/17 06:28:51;;;;;;;1.60;1.50;;;20.80;59.30;;;;;;5040320;28;43649;-61
2022/06/17 06:31:35;;;;;;;1.40;1.40;;;20.80;59.30;;;;;;5045282;28;43520;-61
2022/06/17 06:34:20;;;;;;;1.52;1.42;;;20.80;59.20;;;;;;5042713;28;43552;-61
2022/06/17 06:36:47;;;;;;;1.63;1.52;;;20.70;59.20;;;;;;5043669;28;45034;-61
2022/06/17 06:39:15;;;;;;;1.50;1.40;;;20.80;59.30;;;;;;5045050;28;43922;-62
2022/06/17 06:41:42;;;;;;;1.50;1.40;;;20.80;59.30;;;;;;5045503;28;43441;-61
2022/06/17 06:44:10;;;;;;;1.45;1.38;;;20.80;59.40;;;;;;5044189;28;43554;-62
2022/06/17 06:46:56;;;;;;;1.65;1.55;;;20.80;59.30;;;;;;5045177;28;44769;-61
2022/06/17 06:49:31;;;;;;;1.58;1.48;;;20.80;59.30;;;;;;5041758;28;43506;-62
2022/06/17 06:51:58;;;;;;;1.40;1.30;;;20.80;59.40;;;;;;5044830;28;43500;-61
2022/06/17 06:54:26;;;;;;;1.70;1.60;;;20.80;59.40;;;;;;5077783;28;43534;-62
2022/06/17 06:56:55;;;;;;;1.70;1.55;;;20.80;59.40;;;;;;5044900;28;45284;-61
2022/06/17 06:59:42;;;;;;;1.60;1.50;;;20.80;59.50;;;;;;5042850;28;43584;-61
2022/06/17 07:02:10;;;;;;;1.40;1.30;;;20.80;59.50;;;;;;5043803;28;44082;-62
2022/06/17 07:04:40;;;;;;;1.70;1.60;;;20.80;59.40;;;;;;5043468;28;43590;-62
2022/06/17 07:07:10;;;;;;;1.20;1.20;;;20.80;59.40;;;;;;5044930;28;44688;-62
2022/06/17 07:09:38;;;;;;;1.50;1.43;;;20.80;59.40;;;;;;5043925;28;43968;-62
2022/06/17 07:12:07;;;;;;;1.25;1.25;;;20.80;59.40;;;;;;5044932;28;43516;-61
2022/06/17 07:14:35;;;;;;;1.52;1.42;;;20.80;59.50;;;;;;5044505;28;43503;-62
2022/06/17 07:17:02;;;;;;;1.60;1.50;;;20.80;59.60;;;;;;5045206;28;45093;-62
2022/06/17 07:19:30;;;;;;;1.70;1.60;;;20.80;59.50;;;;;;5043704;28;43621;-62
2022/06/17 07:21:58;;;;;;;1.70;1.60;;;20.80;59.60;;;;;;5044885;28;43519;-61
2022/06/17 07:24:26;;;;;;;1.50;1.40;;;20.80;59.40;;;;;;5044689;28;43496;-62
2022/06/17 07:26:53;;;;;;;1.80;1.70;;;20.80;59.50;;;;;;5044493;28;43789;-61
2022/06/17 07:29:21;;;;;;;1.48;1.48;;;20.80;59.50;;;;;;5044160;28;43664;-61
2022/06/17 07:31:48;;;;;;;1.65;1.55;;;20.80;59.40;;;;;;5042181;28;43536;-61
2022/06/17 07:34:16;;;;;;;1.48;1.45;;;20.80;59.60;;;;;;5044788;28;43538;-61
2022/06/17 07:42:15;;;;;;;1.52;1.42;;;20.80;59.50;;;;;;5044377;28;43459;-61
2022/06/17 07:44:45;;;;;;;1.55;1.50;;;20.80;59.50;;;;;;5043885;28;43510;-60
2022/06/17 07:47:15;;;;;;;1.65;1.55;;;20.80;59.50;;;;;;5043164;28;44062;-61
2022/06/17 07:49:43;;;;;;;1.52;1.42;;;20.80;59.50;;;;;;5043908;28;43688;-61
2022/06/17 07:52:11;;;;;;;1.50;1.40;;;20.80;59.40;;;;;;5045163;28;43406;-61
2022/06/17 07:54:39;;;;;;;1.33;1.30;;;20.80;59.50;;;;;;5043382;28;43541;-61
2022/06/17 07:57:07;;;;;;;1.42;1.33;;;20.80;59.40;;;;;;5043577;28;44994;-61
2022/06/17 07:59:34;;;;;;;1.48;1.38;;;20.90;59.50;;;;;;5043870;28;43589;-61
2022/06/17 08:02:02;;;;;;;1.50;1.40;;;20.80;59.40;;;;;;5042584;28;43474;-61
2022/06/17 08:04:30;;;;;;;1.40;1.30;;;20.90;59.40;;;;;;5043008;28;43534;-62
2022/06/17 08:06:57;;;;;;;1.48;1.48;;;20.90;59.40;;;;;;5043346;28;44041;-61
2022/06/17 08:09:28;;;;;;;1.70;1.60;;;20.90;59.40;;;;;;5044180;28;43525;-61
2022/06/17 08:11:56;;;;;;;1.50;1.40;;;20.90;59.40;;;;;;5043984;28;43540;-62
2022/06/17 08:14:24;;;;;;;1.45;1.38;;;20.90;59.40;;;;;;5042745;28;43599;-61
2022/06/17 08:16:52;;;;;;;1.40;1.40;;;20.90;59.40;;;;;;5033796;28;44962;-61
2022/06/17 08:19:20;;;;;;;1.50;1.40;;;20.90;59.60;;;;;;5043907;28;43721;-61
2022/06/17 08:21:48;;;;;;;1.38;1.38;;;20.90;59.50;;;;;;5043759;28;43464;-61
2022/06/17 08:24:25;;;;;;;1.30;1.30;;;20.90;59.50;;;;;;5043373;28;43502;-61
2022/06/17 08:26:52;;;;;;;1.65;1.55;;;20.90;59.60;;;;;;5042201;28;43808;-62
2022/06/17 08:29:20;;;;;;;1.70;1.60;;;20.90;59.70;;;;;;5043656;28;43976;-61
2022/06/17 08:34:54;;;;;;;2.00;1.50;;;20.90;60.10;;;;;;5043719;28;43534;-62
2022/06/17 08:37:21;;;;;;;1.67;1.58;;;20.90;60.20;;;;;;5043514;28;44956;-61
2022/06/17 08:39:51;;;;;;;2.20;1.98;;;20.90;60.40;;;;;;5042890;28;43417;-62
2022/06/17 08:42:40;;;;;;;2.67;1.83;;;21.00;61.20;;;;;;5042005;28;43439;-62
2022/06/17 08:45:33;;;;;;;2.90;2.25;;;21.00;60.70;;;;;;5043503;28;43542;-61
2022/06/17 08:48:21;;;;;;;1.92;1.67;;;21.00;60.20;;;;;;5042137;28;43994;-61
2022/06/17 08:50:51;;;;;;;2.25;1.55;;;21.00;60.60;;;;;;5044126;28;43766;-61
2022/06/17 08:53:48;;;;;;;1.75;1.60;;;21.00;60.60;;;;;;5043657;28;43502;-61
2022/06/17 08:56:32;;;;;;;2.28;1.80;;;21.00;60.40;;;;;;5037588;28;43450;-61
2022/06/17 08:59:15;;;;;;;2.97;1.90;;;21.00;60.60;;;;;;5035726;28;44003;-61
2022/06/17 09:01:49;;;;;;;2.15;1.70;;;21.00;60.60;;;;;;5041858;28;43515;-62
2022/06/17 09:04:36;;;;;;;1.83;1.70;;;21.00;60.50;;;;;;5042743;28;43527;-61
2022/06/17 09:07:15;;;;;;;2.40;1.80;;;21.00;60.60;;;;;;5035703;28;44031;-61
2022/06/17 09:10:02;;;;;;;2.05;1.77;;;21.00;60.50;;;;;;5041952;28;44960;-61
2022/06/17 09:12:36;;;;;;;1.80;1.70;;;21.00;60.60;;;;;;5042656;28;43434;-61
2022/06/17 09:15:12;;;;;;;3.10;1.90;;;21.00;60.40;;;;;;5043008;28;43451;-61
2022/06/17 09:17:58;;;;;;;2.38;1.75;;;21.10;60.50;;;;;;5042717;28;43459;-62
2022/06/17 09:20:35;;;;;;;2.08;1.80;;;21.10;60.50;;;;;;5042604;28;43887;-61
2022/06/17 09:23:11;;;;;;;4.25;1.98;;;21.10;60.50;;;;;;5038600;28;43468;-61
2022/06/17 09:25:45;;;;;;;1.90;1.77;;;21.10;60.50;;;;;;5042454;28;43454;-61
2022/06/17 09:28:18;;;;;;;1.65;1.50;;;21.10;60.50;;;;;;5033120;28;43461;-61
2022/06/17 09:30:56;;;;;;;1.75;1.65;;;21.10;60.50;;;;;;5042998;28;44956;-61
2022/06/17 09:33:33;;;;;;;1.90;1.80;;;21.10;60.40;;;;;;5041964;28;43459;-61
2022/06/17 09:36:31;;;;;;;1.88;1.77;;;21.10;60.50;;;;;;5042546;28;43567;-61
2022/06/17 09:39:24;;;;;;;2.35;1.45;;;21.10;60.30;;;;;;5036508;28;43519;-61
2022/06/17 09:42:02;;;;;;;2.60;1.65;;;21.10;60.30;;;;;;5042106;28;43757;-61
2022/06/17 09:44:46;;;;;;;1.83;1.73;;;21.10;60.30;;;;;;5036036;28;43447;-61
2022/06/17 09:47:17;;;;;;;1.92;1.70;;;21.20;60.20;;;;;;5042653;28;43410;-61
2022/06/17 09:50:23;;;;;;;2.03;1.60;;;21.10;60.10;;;;;;5047321;28;43583;-61
2022/06/17 09:52:58;;;;;;;1.80;1.52;;;21.20;60.20;;;;;;5042457;28;45122;-61
2022/06/17 09:55:48;;;;;;;2.00;1.80;;;21.20;60.20;;;;;;5036691;28;43542;-61
2022/06/17 09:58:23;;;;;;;3.10;1.75;;;21.20;60.00;;;;;;5039224;28;43490;-61
2022/06/17 10:00:56;;;;;;;1.92;1.67;;;21.20;60.00;;;;;;5039161;28;43589;-61
2022/06/17 10:03:27;;;;;;;2.28;2.08;;;21.30;60.10;;;;;;5040290;28;44938;-61
2022/06/17 10:06:19;;;;;;;;;;;21.30;60.10;;;;;;5040533;28;43508;-61
2022/06/17 10:08:52;;;;;;;1.83;1.73;;;21.30;60.20;;;;;;5033075;28;43583;-62
2022/06/17 10:11:33;;;;;;;1.92;1.83;;;21.30;60.10;;;;;;5040558;28;43408;-61
2022/06/17 10:14:07;;;;;;;1.90;1.75;;;21.30;60.10;;;;;;5038419;28;43954;-61
2022/06/17 10:19:55;;;;;;;2.20;2.00;;;21.40;60.10;;;;;;5039193;28;43523;-61
2022/06/17 10:22:55;;;;;;;3.05;2.25;;;21.40;59.90;;;;;;5038640;28;43671;-60
2022/06/17 10:25:56;;;;;;;1.85;1.70;;;21.40;59.90;;;;;;5039153;28;44286;-61
2022/06/17 10:28:48;;;;;;;2.10;1.90;;;21.40;60.00;;;;;;5039981;28;43494;-61
2022/06/17 10:31:51;;;;;;;3.55;1.95;;;21.40;60.00;;;;;;5040364;28;43420;-61
2022/06/17 10:34:24;;;;;;;2.00;1.75;;;21.40;59.90;;;;;;5040765;28;43652;-61
2022/06/17 10:36:55;;;;;;;1.83;1.73;;;21.40;60.00;;;;;;5038711;28;44292;-60
2022/06/17 10:39:26;;;;;;;2.03;1.80;;;21.40;60.00;;;;;;5040340;28;43479;-61
2022/06/17 10:41:54;;;;;;;;;;;21.40;59.90;;;;;;5039582;28;43387;-61
2022/06/17 10:44:38;;;;;;;1.90;1.80;;;21.40;59.90;;;;;;5071165;28;43601;-61
2022/06/17 10:47:20;;;;;;;2.00;1.80;;;21.40;60.00;;;;;;5040256;28;43801;-61
2022/06/17 10:49:53;;;;;;;2.30;1.90;;;21.40;59.90;;;;;;5038573;28;43501;-61
2022/06/17 10:52:28;;;;;;;2.28;1.90;;;21.40;60.00;;;;;;5042619;28;43489;-62
2022/06/17 10:54:56;;;;;;;2.60;1.80;;;21.40;59.90;;;;;;5041207;28;43551;-61
2022/06/17 10:57:29;;;;;;;2.47;1.80;;;21.50;59.90;;;;;;5039428;28;43786;-61
2022/06/17 10:59:57;;;;;;;1.95;1.77;;;21.50;59.90;;;;;;5041565;28;44269;-61
2022/06/17 11:02:31;;;;;;;2.10;1.70;;;21.50;59.80;;;;;;5036087;28;43490;-61
2022/06/17 11:05:02;;;;;;;1.85;1.75;;;21.60;60.00;;;;;;5028775;28;44912;-61
2022/06/17 11:07:51;;;;;;;1.60;1.50;;;21.60;59.90;;;;;;5029237;28;44184;-61
2022/06/17 11:10:24;;;;;;;2.95;1.80;;;21.60;59.80;;;;;;5012962;28;43555;-61
2022/06/17 11:13:14;;;;;;;1.65;1.55;;;21.60;59.80;;;;;;5029366;28;43569;-61
2022/06/17 11:15:53;;;;;;;2.00;1.80;;;21.60;59.80;;;;;;5026016;28;44234;-61
2022/06/17 11:18:29;;;;;;;1.80;1.70;;;21.60;59.70;;;;;;5026097;28;43795;-61
2022/06/17 11:21:01;;;;;;;1.83;1.73;;;21.60;59.90;;;;;;5026561;28;43570;-62
2022/06/17 11:23:38;;;;;;;1.90;1.70;;;21.60;59.70;;;;;;5023868;28;43606;-62
2022/06/17 11:26:25;;;;;;;2.03;1.75;;;21.60;59.70;;;;;;5036173;28;43476;-61
2022/06/17 11:28:58;;;;;;;2.00;1.48;;;21.70;59.80;;;;;;5037088;28;43924;-61
2022/06/17 11:31:26;;;;;;;2.58;1.80;;;21.70;59.80;;;;;;5042664;28;43637;-61
2022/06/17 11:33:56;;;;;;;2.13;1.90;;;21.70;59.70;;;;;;5043307;28;43384;-61
2022/06/17 11:36:23;;;;;;;2.95;2.08;;;21.80;60.00;;;;;;5043273;28;43680;-61
2022/06/17 11:38:52;;;;;;;2.35;2.15;;;21.90;59.80;;;;;;5042120;28;43805;-62
2022/06/17 11:41:30;;;;;;;2.92;2.72;;;21.90;59.80;;;;;;5042213;28;44005;-62
2022/06/17 11:44:12;;;;;;;5.55;3.55;;;22.00;59.70;;;;;;5041673;28;43491;-61
2022/06/17 11:46:55;;;;;;;3.13;2.83;;;22.10;59.70;;;;;;5042890;28;44025;-61
2022/06/17 11:49:24;;;;;;;2.92;2.67;;;22.10;59.60;;;;;;5042243;28;44104;-61
2022/06/17 11:52:00;;;;;;;3.10;2.80;;;22.20;59.50;;;;;;5043012;28;43562;-61
2022/06/17 11:54:34;;;;;;;3.03;2.42;;;22.20;59.40;;;;;;5040744;28;43425;-61
2022/06/17 11:57:18;;;;;;;4.40;2.88;;;22.20;59.30;;;;;;5043827;28;43572;-61
2022/06/17 11:59:49;;;;;;;2.83;2.58;;;22.30;59.40;;;;;;5042477;28;45009;-61
2022/06/17 12:02:17;;;;;;;3.28;2.78;;;22.30;59.30;;;;;;5038891;28;43544;-61
2022/06/17 12:04:45;;;;;;;4.88;3.10;;;22.30;59.30;;;;;;5042597;28;43550;-61
2022/06/17 12:07:19;;;;;;;3.88;2.80;;;22.40;59.40;;;;;;5043605;28;43531;-62
2022/06/17 12:09:49;;;;;;;4.13;3.10;;;22.40;59.40;;;;;;5043971;28;44045;-62
2022/06/17 12:12:18;;;;;;;5.10;2.70;;;22.40;59.30;;;;;;5041948;28;43885;-62
2022/06/17 12:14:52;;;;;;;3.88;3.35;;;22.40;59.30;;;;;;5042808;28;43440;-62
2022/06/17 12:17:21;;;;;;;3.03;2.72;;;22.40;59.50;;;;;;5042589;28;43522;-62
2022/06/17 12:19:53;;;;;;;3.35;3.05;;;22.50;59.60;;;;;;5042525;28;43739;-62
2022/06/17 12:22:58;;;;;;;4.03;3.63;;;22.50;59.60;;;;;;5042425;28;43428;-62
2022/06/17 12:25:50;;;;;;;4.15;3.20;;;22.60;59.40;;;;;;5042857;28;43513;-62
2022/06/17 12:28:36;;;;;;;3.10;2.80;;;22.60;59.40;;;;;;5041798;28;43615;-62
2022/06/17 12:31:28;;;;;;;3.40;3.10;;;22.60;59.30;;;;;;5041086;28;44686;-62
2022/06/17 12:34:05;;;;;;;4.53;3.08;;;22.70;59.20;;;;;;5041012;28;43709;-61
2022/06/17 12:36:38;;;;;;;3.20;2.97;;;22.70;59.30;;;;;;5042314;28;43515;-62
2022/06/17 12:39:17;;;;;;;3.30;3.00;;;22.70;59.40;;;;;;5040334;28;43566;-62
2022/06/17 12:42:15;;;;;;;3.13;2.90;;;22.80;59.30;;;;;;5038095;28;44036;-62
2022/06/17 12:45:05;;;;;;;4.97;3.20;;;22.80;59.20;;;;;;5040041;28;43699;-62
2022/06/17 12:48:18;;;;;;;3.30;2.97;;;22.80;59.20;;;;;;5038895;28;43487;-62
2022/06/17 12:54:23;;;;;;;3.80;3.00;;;22.80;58.90;;;;;;5042448;28;45008;-62
2022/06/17 12:57:16;;;;;;;3.63;2.70;;;22.80;58.50;;;;;;5041956;28;43518;-62
2022/06/17 12:59:53;;;;;;;3.35;3.03;;;22.80;58.60;;;;;;5040401;28;43443;-61
2022/06/17 13:02:38;;;;;;;3.10;2.90;;;22.80;58.30;;;;;;5042033;28;43582;-62
2022/06/17 13:05:23;;;;;;;3.00;2.78;;;22.80;58.20;;;;;;5038525;28;44700;-62
2022/06/17 13:08:12;;;;;;;3.55;3.25;;;22.90;58.10;;;;;;5040789;28;43534;-62
2022/06/17 13:11:18;;;;;;;3.15;2.85;;;22.90;58.00;;;;;;5041618;28;43506;-61
2022/06/17 13:14:04;;;;;;;3.40;3.10;;;22.90;58.00;;;;;;5040982;28;43640;-62
2022/06/17 13:16:43;;;;;;;2.90;2.70;;;22.90;58.10;;;;;;5039214;28;44797;-62
2022/06/17 13:19:35;;;;;;;3.08;2.80;;;22.90;58.00;;;;;;5042386;28;43995;-62
2022/06/17 13:22:09;;;;;;;2.90;2.70;;;22.90;58.00;;;;;;5042495;28;43480;-62
2022/06/17 13:24:54;;;;;;;3.10;2.80;;;22.90;58.00;;;;;;5040071;28;43550;-62
2022/06/17 13:27:48;;;;;;;3.30;2.97;;;22.90;58.00;;;;;;5038684;28;43580;-62
2022/06/17 13:30:30;;;;;;;3.60;3.30;;;22.90;58.00;;;;;;5042553;28;43975;-62
2022/06/17 13:33:12;;;;;;;3.17;2.85;;;22.90;58.00;;;;;;5039282;28;43518;-62
2022/06/17 13:35:51;;;;;;;3.78;3.05;;;22.90;58.00;;;;;;5040796;28;43435;-62
2022/06/17 13:38:27;;;;;;;2.90;2.70;;;22.90;58.00;;;;;;5042502;28;44654;-62
2022/06/17 13:41:25;;;;;;;4.65;2.72;;;22.90;58.00;;;;;;5041523;28;43660;-61
2022/06/17 13:44:19;;;;;;;3.70;2.78;;;22.90;58.00;;;;;;5039741;28;43409;-62
2022/06/17 13:47:01;;;;;;;3.05;2.75;;;22.90;58.10;;;;;;5038254;28;43995;-62
2022/06/17 13:49:49;;;;;;;3.10;2.90;;;22.90;58.70;;;;;;5041078;28;43777;-62
2022/06/17 13:52:22;;;;;;;2.97;2.70;;;23.00;58.90;;;;;;5041429;28;43445;-62
2022/06/17 13:55:15;;;;;;;3.17;2.83;;;23.00;58.90;;;;;;5040521;28;43492;-62
2022/06/17 13:58:03;;;;;;;3.05;2.75;;;23.10;58.60;;;;;;5004876;28;43543;-62